sensor_id;sensor_type;location;lat;lon;timestamp;P1;durP1;ratioP1;P2;durP2;ratioP2
3369;SDS011;42042;51.948;7.628;2022-12-18T00:02:05;58.83;;;26.92;;
3369;SDS011;42042;51.948;7.628;2022-12-18T00:04:38;56.75;;;29.45;;
3369;SDS011;42042;51.948;7.628;2022-12-18T00:07:06;59.13;;;28.15;;
3369;SDS011;42042;51.948;7.628;2022-12-18T00:09:33;61.40;;;29.83;;
3369;SDS011;42042;51.948;7.628;2022-12-18T00:12:00;62.22;;;31.05;;
3369;SDS011;42042;51.948;7.628;2022-12-18T00:14:27;60.40;;;28.95;;
3369;SDS011;42042;51.948;7.628;2022-12-18T00:16:56;66.68;;;30.52;;
3369;SDS011;42042;51.948;7.628;2022-12-18T00:19:25;69.43;;;30.60;;
3369;SDS011;42042;51.948;7.628;2022-12-18T00:21:52;58.45;;;26.92;;
3369;SDS011;42042;51.948;7.628;2022-12-18T00:24:20;61.85;;;29.65;;
3369;SDS011;42042;51.948;7.628;2022-12-18T00:26:47;61.95;;;29.63;;
3369;SDS011;42042;51.948;7.628;2022-12-18T00:29:14;59.40;;;26.40;;
3369;SDS011;42042;51.948;7.628;2022-12-18T00:31:42;56.15;;;29.90;;
3369;SDS011;42042;51.948;7.628;2022-12-18T00:34:10;62.45;;;28.45;;
3369;SDS011;42042;51.948;7.628;2022-12-18T00:36:38;54.85;;;30.25;;
3369;SDS011;42042;51.948;7.628;2022-12-18T00:39:06;55.97;;;28.25;;
3369;SDS011;42042;51.948;7.628;2022-12-18T00:41:33;54.65;;;29.77;;
3369;SDS011;42042;51.948;7.628;2022-12-18T00:44:18;52.83;;;27.25;;
3369;SDS011;42042;51.948;7.628;2022-12-18T00:46:46;60.65;;;27.00;;
3369;SDS011;42042;51.948;7.628;2022-12-18T00:49:15;53.50;;;28.45;;
3369;SDS011;42042;51.948;7.628;2022-12-18T00:51:42;68.13;;;29.70;;
3369;SDS011;42042;51.948;7.628;2022-12-18T00:54:10;52.92;;;26.88;;
3369;SDS011;42042;51.948;7.628;2022-12-18T00:56:37;63.35;;;28.42;;
3369;SDS011;42042;51.948;7.628;2022-12-18T00:59:04;54.10;;;29.00;;
3369;SDS011;42042;51.948;7.628;2022-12-18T01:01:31;58.85;;;28.77;;
3369;SDS011;42042;51.948;7.628;2022-12-18T01:03:59;65.68;;;30.42;;
3369;SDS011;42042;51.948;7.628;2022-12-18T01:06:28;56.55;;;30.98;;
3369;SDS011;42042;51.948;7.628;2022-12-18T01:08:55;50.45;;;28.17;;
3369;SDS011;42042;51.948;7.628;2022-12-18T01:11:22;58.33;;;30.13;;
3369;SDS011;42042;51.948;7.628;2022-12-18T01:13:51;55.38;;;30.15;;
3369;SDS011;42042;51.948;7.628;2022-12-18T01:16:18;64.25;;;28.70;;
3369;SDS011;42042;51.948;7.628;2022-12-18T01:18:45;54.78;;;29.10;;
3369;SDS011;42042;51.948;7.628;2022-12-18T01:21:13;74.55;;;33.60;;
3369;SDS011;42042;51.948;7.628;2022-12-18T01:23:46;71.75;;;30.42;;
3369;SDS011;42042;51.948;7.628;2022-12-18T01:26:13;61.13;;;32.28;;
3369;SDS011;42042;51.948;7.628;2022-12-18T01:28:41;66.35;;;32.17;;
3369;SDS011;42042;51.948;7.628;2022-12-18T01:31:10;62.95;;;30.77;;
3369;SDS011;42042;51.948;7.628;2022-12-18T01:33:37;70.57;;;32.70;;
3369;SDS011;42042;51.948;7.628;2022-12-18T01:36:05;61.58;;;34.00;;
3369;SDS011;42042;51.948;7.628;2022-12-18T01:38:32;63.75;;;29.00;;
3369;SDS011;42042;51.948;7.628;2022-12-18T01:41:01;57.10;;;30.13;;
3369;SDS011;42042;51.948;7.628;2022-12-18T01:43:45;56.13;;;26.77;;
3369;SDS011;42042;51.948;7.628;2022-12-18T01:46:12;60.13;;;28.83;;
3369;SDS011;42042;51.948;7.628;2022-12-18T01:48:40;48.90;;;26.85;;
3369;SDS011;42042;51.948;7.628;2022-12-18T01:51:08;60.75;;;30.98;;
3369;SDS011;42042;51.948;7.628;2022-12-18T01:53:36;67.82;;;32.88;;
3369;SDS011;42042;51.948;7.628;2022-12-18T01:56:05;69.88;;;34.38;;
3369;SDS011;42042;51.948;7.628;2022-12-18T01:58:35;65.10;;;30.67;;
3369;SDS011;42042;51.948;7.628;2022-12-18T02:01:03;64.22;;;31.13;;
3369;SDS011;42042;51.948;7.628;2022-12-18T02:03:30;61.60;;;30.42;;
3369;SDS011;42042;51.948;7.628;2022-12-18T02:05:59;56.28;;;29.02;;
3369;SDS011;42042;51.948;7.628;2022-12-18T02:08:29;55.83;;;28.35;;
3369;SDS011;42042;51.948;7.628;2022-12-18T02:11:01;64.93;;;28.45;;
3369;SDS011;42042;51.948;7.628;2022-12-18T02:13:36;58.58;;;31.25;;
3369;SDS011;42042;51.948;7.628;2022-12-18T02:16:05;78.50;;;30.70;;
3369;SDS011;42042;51.948;7.628;2022-12-18T02:18:35;48.72;;;24.23;;
3369;SDS011;42042;51.948;7.628;2022-12-18T02:21:07;59.05;;;27.10;;
3369;SDS011;42042;51.948;7.628;2022-12-18T02:23:39;51.65;;;27.25;;
3369;SDS011;42042;51.948;7.628;2022-12-18T02:26:15;51.47;;;27.88;;
3369;SDS011;42042;51.948;7.628;2022-12-18T02:28:44;54.92;;;27.60;;
3369;SDS011;42042;51.948;7.628;2022-12-18T02:31:13;53.95;;;29.23;;
3369;SDS011;42042;51.948;7.628;2022-12-18T02:33:41;46.67;;;26.95;;
3369;SDS011;42042;51.948;7.628;2022-12-18T02:36:12;49.65;;;26.63;;
3369;SDS011;42042;51.948;7.628;2022-12-18T02:38:40;48.80;;;27.27;;
3369;SDS011;42042;51.948;7.628;2022-12-18T02:41:08;43.40;;;23.88;;
3369;SDS011;42042;51.948;7.628;2022-12-18T02:43:36;63.88;;;28.70;;
3369;SDS011;42042;51.948;7.628;2022-12-18T02:48:46;47.83;;;26.40;;
3369;SDS011;42042;51.948;7.628;2022-12-18T02:51:15;51.60;;;27.95;;
3369;SDS011;42042;51.948;7.628;2022-12-18T02:53:47;50.90;;;27.33;;
3369;SDS011;42042;51.948;7.628;2022-12-18T02:56:18;63.20;;;30.48;;
3369;SDS011;42042;51.948;7.628;2022-12-18T02:58:51;53.25;;;27.70;;
3369;SDS011;42042;51.948;7.628;2022-12-18T03:01:23;55.20;;;27.55;;
3369;SDS011;42042;51.948;7.628;2022-12-18T03:03:51;56.65;;;28.00;;
3369;SDS011;42042;51.948;7.628;2022-12-18T03:06:23;45.97;;;26.33;;
3369;SDS011;42042;51.948;7.628;2022-12-18T03:08:51;60.53;;;27.75;;
3369;SDS011;42042;51.948;7.628;2022-12-18T03:11:19;51.20;;;26.45;;
3369;SDS011;42042;51.948;7.628;2022-12-18T03:14:19;58.83;;;29.08;;
3369;SDS011;42042;51.948;7.628;2022-12-18T03:16:47;49.75;;;28.38;;
3369;SDS011;42042;51.948;7.628;2022-12-18T03:19:16;61.03;;;28.58;;
3369;SDS011;42042;51.948;7.628;2022-12-18T03:21:45;48.67;;;25.95;;
3369;SDS011;42042;51.948;7.628;2022-12-18T03:24:13;48.97;;;29.55;;
3369;SDS011;42042;51.948;7.628;2022-12-18T03:26:43;44.15;;;24.52;;
3369;SDS011;42042;51.948;7.628;2022-12-18T03:29:12;58.38;;;28.17;;
3369;SDS011;42042;51.948;7.628;2022-12-18T03:31:45;65.20;;;32.78;;
3369;SDS011;42042;51.948;7.628;2022-12-18T03:34:15;50.70;;;27.08;;
3369;SDS011;42042;51.948;7.628;2022-12-18T03:36:44;67.85;;;29.33;;
3369;SDS011;42042;51.948;7.628;2022-12-18T03:39:11;55.28;;;28.23;;
3369;SDS011;42042;51.948;7.628;2022-12-18T03:41:41;52.63;;;28.80;;
3369;SDS011;42042;51.948;7.628;2022-12-18T03:44:11;47.22;;;25.13;;
3369;SDS011;42042;51.948;7.628;2022-12-18T03:46:40;49.42;;;26.67;;
3369;SDS011;42042;51.948;7.628;2022-12-18T03:49:11;46.78;;;24.98;;
3369;SDS011;42042;51.948;7.628;2022-12-18T03:51:39;48.47;;;22.83;;
3369;SDS011;42042;51.948;7.628;2022-12-18T03:54:07;41.63;;;22.92;;
3369;SDS011;42042;51.948;7.628;2022-12-18T03:56:36;43.03;;;24.10;;
3369;SDS011;42042;51.948;7.628;2022-12-18T03:59:04;43.85;;;22.70;;
3369;SDS011;42042;51.948;7.628;2022-12-18T04:01:32;48.65;;;24.33;;
3369;SDS011;42042;51.948;7.628;2022-12-18T04:04:01;48.08;;;24.10;;
3369;SDS011;42042;51.948;7.628;2022-12-18T04:06:31;42.58;;;22.73;;
3369;SDS011;42042;51.948;7.628;2022-12-18T04:08:58;46.00;;;22.08;;
3369;SDS011;42042;51.948;7.628;2022-12-18T04:11:26;45.22;;;25.05;;
3369;SDS011;42042;51.948;7.628;2022-12-18T04:13:55;48.97;;;24.40;;
3369;SDS011;42042;51.948;7.628;2022-12-18T04:16:22;49.08;;;25.83;;
3369;SDS011;42042;51.948;7.628;2022-12-18T04:18:49;45.03;;;24.08;;
3369;SDS011;42042;51.948;7.628;2022-12-18T04:21:17;47.90;;;28.33;;
3369;SDS011;42042;51.948;7.628;2022-12-18T04:23:45;49.83;;;28.33;;
3369;SDS011;42042;51.948;7.628;2022-12-18T04:26:13;53.65;;;28.27;;
3369;SDS011;42042;51.948;7.628;2022-12-18T04:28:40;59.28;;;28.42;;
3369;SDS011;42042;51.948;7.628;2022-12-18T04:31:07;71.22;;;30.60;;
3369;SDS011;42042;51.948;7.628;2022-12-18T04:33:34;59.75;;;29.98;;
3369;SDS011;42042;51.948;7.628;2022-12-18T04:36:02;42.50;;;24.73;;
3369;SDS011;42042;51.948;7.628;2022-12-18T04:38:29;44.20;;;24.73;;
3369;SDS011;42042;51.948;7.628;2022-12-18T04:40:58;37.40;;;20.42;;
3369;SDS011;42042;51.948;7.628;2022-12-18T04:43:28;33.50;;;19.00;;
3369;SDS011;42042;51.948;7.628;2022-12-18T04:46:01;32.63;;;19.25;;
3369;SDS011;42042;51.948;7.628;2022-12-18T04:48:28;33.00;;;21.50;;
3369;SDS011;42042;51.948;7.628;2022-12-18T04:50:55;42.95;;;21.55;;
3369;SDS011;42042;51.948;7.628;2022-12-18T04:53:23;35.45;;;20.98;;
3369;SDS011;42042;51.948;7.628;2022-12-18T04:55:50;36.75;;;21.25;;
3369;SDS011;42042;51.948;7.628;2022-12-18T04:58:19;34.35;;;20.15;;
3369;SDS011;42042;51.948;7.628;2022-12-18T05:00:46;37.25;;;20.25;;
3369;SDS011;42042;51.948;7.628;2022-12-18T05:03:13;35.95;;;19.92;;
3369;SDS011;42042;51.948;7.628;2022-12-18T05:05:40;36.95;;;19.40;;
3369;SDS011;42042;51.948;7.628;2022-12-18T05:08:07;34.63;;;20.58;;
3369;SDS011;42042;51.948;7.628;2022-12-18T05:10:35;39.72;;;19.10;;
3369;SDS011;42042;51.948;7.628;2022-12-18T05:13:02;39.15;;;20.52;;
3369;SDS011;42042;51.948;7.628;2022-12-18T05:15:31;35.13;;;19.70;;
3369;SDS011;42042;51.948;7.628;2022-12-18T05:17:58;35.25;;;20.52;;
3369;SDS011;42042;51.948;7.628;2022-12-18T05:20:26;34.65;;;19.92;;
3369;SDS011;42042;51.948;7.628;2022-12-18T05:22:54;33.33;;;19.55;;
3369;SDS011;42042;51.948;7.628;2022-12-18T05:25:21;37.63;;;19.80;;
3369;SDS011;42042;51.948;7.628;2022-12-18T05:27:49;26.05;;;17.80;;
3369;SDS011;42042;51.948;7.628;2022-12-18T05:30:16;37.72;;;18.10;;
3369;SDS011;42042;51.948;7.628;2022-12-18T05:32:45;35.55;;;19.60;;
3369;SDS011;42042;51.948;7.628;2022-12-18T05:35:12;33.08;;;18.05;;
3369;SDS011;42042;51.948;7.628;2022-12-18T05:37:39;37.28;;;21.40;;
3369;SDS011;42042;51.948;7.628;2022-12-18T05:40:07;38.55;;;19.60;;
3369;SDS011;42042;51.948;7.628;2022-12-18T05:42:34;35.63;;;22.05;;
3369;SDS011;42042;51.948;7.628;2022-12-18T05:45:01;37.47;;;18.42;;
3369;SDS011;42042;51.948;7.628;2022-12-18T05:47:29;36.33;;;19.85;;
3369;SDS011;42042;51.948;7.628;2022-12-18T05:49:57;29.13;;;19.75;;
3369;SDS011;42042;51.948;7.628;2022-12-18T05:52:24;32.38;;;18.80;;
3369;SDS011;42042;51.948;7.628;2022-12-18T05:54:52;34.40;;;18.70;;
3369;SDS011;42042;51.948;7.628;2022-12-18T05:57:19;37.03;;;18.35;;
3369;SDS011;42042;51.948;7.628;2022-12-18T05:59:46;28.00;;;17.13;;
3369;SDS011;42042;51.948;7.628;2022-12-18T06:02:13;34.70;;;20.13;;
3369;SDS011;42042;51.948;7.628;2022-12-18T06:04:41;29.83;;;18.38;;
3369;SDS011;42042;51.948;7.628;2022-12-18T06:07:09;31.60;;;17.40;;
3369;SDS011;42042;51.948;7.628;2022-12-18T06:09:36;28.33;;;17.27;;
3369;SDS011;42042;51.948;7.628;2022-12-18T06:12:04;24.25;;;17.25;;
3369;SDS011;42042;51.948;7.628;2022-12-18T06:14:31;28.83;;;18.42;;
3369;SDS011;42042;51.948;7.628;2022-12-18T06:16:59;29.55;;;19.88;;
3369;SDS011;42042;51.948;7.628;2022-12-18T06:19:26;38.05;;;19.33;;
3369;SDS011;42042;51.948;7.628;2022-12-18T06:21:53;26.85;;;18.45;;
3369;SDS011;42042;51.948;7.628;2022-12-18T06:24:24;30.42;;;16.70;;
3369;SDS011;42042;51.948;7.628;2022-12-18T06:26:51;26.08;;;17.67;;
3369;SDS011;42042;51.948;7.628;2022-12-18T06:29:18;26.25;;;16.23;;
3369;SDS011;42042;51.948;7.628;2022-12-18T06:31:45;30.58;;;16.60;;
3369;SDS011;42042;51.948;7.628;2022-12-18T06:34:12;30.08;;;16.85;;
3369;SDS011;42042;51.948;7.628;2022-12-18T06:36:40;27.73;;;17.25;;
3369;SDS011;42042;51.948;7.628;2022-12-18T06:39:07;30.35;;;16.92;;
3369;SDS011;42042;51.948;7.628;2022-12-18T06:41:35;38.33;;;18.25;;
3369;SDS011;42042;51.948;7.628;2022-12-18T06:44:03;32.00;;;16.25;;
3369;SDS011;42042;51.948;7.628;2022-12-18T06:46:30;30.52;;;16.10;;
3369;SDS011;42042;51.948;7.628;2022-12-18T06:48:58;20.02;;;14.48;;
3369;SDS011;42042;51.948;7.628;2022-12-18T06:51:25;26.60;;;16.20;;
3369;SDS011;42042;51.948;7.628;2022-12-18T06:53:52;25.42;;;15.45;;
3369;SDS011;42042;51.948;7.628;2022-12-18T06:56:20;27.40;;;13.70;;
3369;SDS011;42042;51.948;7.628;2022-12-18T06:58:48;26.27;;;15.88;;
3369;SDS011;42042;51.948;7.628;2022-12-18T07:01:16;26.17;;;15.13;;
3369;SDS011;42042;51.948;7.628;2022-12-18T07:03:43;24.23;;;15.57;;
3369;SDS011;42042;51.948;7.628;2022-12-18T07:06:13;23.17;;;15.00;;
3369;SDS011;42042;51.948;7.628;2022-12-18T07:08:41;28.10;;;15.35;;
3369;SDS011;42042;51.948;7.628;2022-12-18T07:11:08;27.52;;;14.60;;
3369;SDS011;42042;51.948;7.628;2022-12-18T07:13:35;24.52;;;15.23;;
3369;SDS011;42042;51.948;7.628;2022-12-18T07:16:05;23.90;;;14.57;;
3369;SDS011;42042;51.948;7.628;2022-12-18T07:18:33;22.90;;;15.55;;
3369;SDS011;42042;51.948;7.628;2022-12-18T07:21:02;21.27;;;13.25;;
3369;SDS011;42042;51.948;7.628;2022-12-18T07:23:29;24.10;;;16.10;;
3369;SDS011;42042;51.948;7.628;2022-12-18T07:25:59;25.48;;;15.75;;
3369;SDS011;42042;51.948;7.628;2022-12-18T07:28:27;25.65;;;15.10;;
3369;SDS011;42042;51.948;7.628;2022-12-18T07:30:54;25.80;;;16.10;;
3369;SDS011;42042;51.948;7.628;2022-12-18T07:33:22;19.95;;;13.95;;
3369;SDS011;42042;51.948;7.628;2022-12-18T07:35:50;23.25;;;14.35;;
3369;SDS011;42042;51.948;7.628;2022-12-18T07:38:17;24.50;;;13.88;;
3369;SDS011;42042;51.948;7.628;2022-12-18T07:40:44;25.50;;;14.65;;
3369;SDS011;42042;51.948;7.628;2022-12-18T07:43:11;21.23;;;13.98;;
3369;SDS011;42042;51.948;7.628;2022-12-18T07:45:38;24.98;;;14.38;;
3369;SDS011;42042;51.948;7.628;2022-12-18T07:48:06;27.40;;;13.57;;
3369;SDS011;42042;51.948;7.628;2022-12-18T07:50:34;21.63;;;13.70;;
3369;SDS011;42042;51.948;7.628;2022-12-18T07:53:01;23.73;;;14.27;;
3369;SDS011;42042;51.948;7.628;2022-12-18T07:55:29;18.58;;;10.85;;
3369;SDS011;42042;51.948;7.628;2022-12-18T07:57:57;22.30;;;12.32;;
3369;SDS011;42042;51.948;7.628;2022-12-18T08:00:27;22.45;;;11.25;;
3369;SDS011;42042;51.948;7.628;2022-12-18T08:02:54;20.60;;;13.77;;
3369;SDS011;42042;51.948;7.628;2022-12-18T08:05:21;27.70;;;14.38;;
3369;SDS011;42042;51.948;7.628;2022-12-18T08:07:50;21.20;;;12.23;;
3369;SDS011;42042;51.948;7.628;2022-12-18T08:10:17;26.20;;;13.10;;
3369;SDS011;42042;51.948;7.628;2022-12-18T08:12:44;18.20;;;12.40;;
3369;SDS011;42042;51.948;7.628;2022-12-18T08:15:12;19.98;;;12.00;;
3369;SDS011;42042;51.948;7.628;2022-12-18T08:17:39;15.20;;;11.90;;
3369;SDS011;42042;51.948;7.628;2022-12-18T08:20:06;20.05;;;13.68;;
3369;SDS011;42042;51.948;7.628;2022-12-18T08:22:34;16.98;;;11.65;;
3369;SDS011;42042;51.948;7.628;2022-12-18T08:25:03;16.45;;;11.43;;
3369;SDS011;42042;51.948;7.628;2022-12-18T08:27:30;17.75;;;12.70;;
3369;SDS011;42042;51.948;7.628;2022-12-18T08:29:58;19.65;;;12.73;;
3369;SDS011;42042;51.948;7.628;2022-12-18T08:32:25;20.63;;;12.70;;
3369;SDS011;42042;51.948;7.628;2022-12-18T08:34:53;23.85;;;13.10;;
3369;SDS011;42042;51.948;7.628;2022-12-18T08:37:20;17.25;;;11.15;;
3369;SDS011;42042;51.948;7.628;2022-12-18T08:39:47;18.38;;;11.77;;
3369;SDS011;42042;51.948;7.628;2022-12-18T08:42:16;20.23;;;10.95;;
3369;SDS011;42042;51.948;7.628;2022-12-18T08:45:01;18.98;;;12.25;;
3369;SDS011;42042;51.948;7.628;2022-12-18T08:47:28;18.95;;;11.48;;
3369;SDS011;42042;51.948;7.628;2022-12-18T08:49:55;16.85;;;11.45;;
3369;SDS011;42042;51.948;7.628;2022-12-18T08:52:23;20.33;;;13.82;;
3369;SDS011;42042;51.948;7.628;2022-12-18T08:54:50;23.83;;;12.90;;
3369;SDS011;42042;51.948;7.628;2022-12-18T08:57:18;16.30;;;12.38;;
3369;SDS011;42042;51.948;7.628;2022-12-18T08:59:46;24.52;;;13.65;;
3369;SDS011;42042;51.948;7.628;2022-12-18T09:02:13;27.75;;;14.88;;
3369;SDS011;42042;51.948;7.628;2022-12-18T09:04:40;17.23;;;12.00;;
3369;SDS011;42042;51.948;7.628;2022-12-18T09:07:08;16.02;;;11.93;;
3369;SDS011;42042;51.948;7.628;2022-12-18T09:09:35;19.73;;;12.38;;
3369;SDS011;42042;51.948;7.628;2022-12-18T09:14:36;14.65;;;10.68;;
3369;SDS011;42042;51.948;7.628;2022-12-18T09:17:03;22.08;;;13.63;;
3369;SDS011;42042;51.948;7.628;2022-12-18T09:19:31;17.02;;;12.15;;
3369;SDS011;42042;51.948;7.628;2022-12-18T09:21:58;17.15;;;11.07;;
3369;SDS011;42042;51.948;7.628;2022-12-18T09:24:25;17.85;;;12.68;;
3369;SDS011;42042;51.948;7.628;2022-12-18T09:26:52;18.20;;;12.55;;
3369;SDS011;42042;51.948;7.628;2022-12-18T09:29:20;19.02;;;12.02;;
3369;SDS011;42042;51.948;7.628;2022-12-18T09:31:49;14.50;;;11.73;;
3369;SDS011;42042;51.948;7.628;2022-12-18T09:34:16;16.40;;;13.73;;
3369;SDS011;42042;51.948;7.628;2022-12-18T09:36:46;18.15;;;11.75;;
3369;SDS011;42042;51.948;7.628;2022-12-18T09:39:13;20.83;;;13.48;;
3369;SDS011;42042;51.948;7.628;2022-12-18T09:41:44;32.35;;;16.75;;
3369;SDS011;42042;51.948;7.628;2022-12-18T09:44:14;19.02;;;11.63;;
3369;SDS011;42042;51.948;7.628;2022-12-18T09:46:43;21.45;;;11.05;;
3369;SDS011;42042;51.948;7.628;2022-12-18T09:49:13;15.73;;;11.55;;
3369;SDS011;42042;51.948;7.628;2022-12-18T09:51:42;18.38;;;11.45;;
3369;SDS011;42042;51.948;7.628;2022-12-18T09:54:11;15.02;;;10.65;;
3369;SDS011;42042;51.948;7.628;2022-12-18T09:56:40;22.20;;;10.60;;
3369;SDS011;42042;51.948;7.628;2022-12-18T09:59:14;14.80;;;9.65;;
3369;SDS011;42042;51.948;7.628;2022-12-18T10:01:43;15.05;;;10.23;;
3369;SDS011;42042;51.948;7.628;2022-12-18T10:04:12;15.07;;;10.75;;
3369;SDS011;42042;51.948;7.628;2022-12-18T10:06:41;13.27;;;10.57;;
3369;SDS011;42042;51.948;7.628;2022-12-18T10:09:12;14.70;;;10.27;;
3369;SDS011;42042;51.948;7.628;2022-12-18T10:11:46;14.40;;;8.75;;
3369;SDS011;42042;51.948;7.628;2022-12-18T10:14:16;15.40;;;10.88;;
3369;SDS011;42042;51.948;7.628;2022-12-18T10:16:47;14.15;;;10.35;;
3369;SDS011;42042;51.948;7.628;2022-12-18T10:19:20;11.88;;;9.93;;
3369;SDS011;42042;51.948;7.628;2022-12-18T10:21:51;17.50;;;10.85;;
3369;SDS011;42042;51.948;7.628;2022-12-18T10:24:24;13.85;;;9.40;;
3369;SDS011;42042;51.948;7.628;2022-12-18T10:26:54;15.23;;;9.77;;
3369;SDS011;42042;51.948;7.628;2022-12-18T10:29:22;22.88;;;10.80;;
3369;SDS011;42042;51.948;7.628;2022-12-18T10:31:51;17.90;;;12.30;;
3369;SDS011;42042;51.948;7.628;2022-12-18T10:34:20;17.17;;;11.05;;
3369;SDS011;42042;51.948;7.628;2022-12-18T10:36:47;16.48;;;10.27;;
3369;SDS011;42042;51.948;7.628;2022-12-18T10:39:15;17.13;;;9.88;;
3369;SDS011;42042;51.948;7.628;2022-12-18T10:41:43;14.43;;;10.32;;
3369;SDS011;42042;51.948;7.628;2022-12-18T10:44:11;15.50;;;10.68;;
3369;SDS011;42042;51.948;7.628;2022-12-18T10:46:39;16.65;;;10.77;;
3369;SDS011;42042;51.948;7.628;2022-12-18T10:49:17;14.57;;;8.90;;
3369;SDS011;42042;51.948;7.628;2022-12-18T10:51:46;18.85;;;10.57;;
3369;SDS011;42042;51.948;7.628;2022-12-18T10:54:14;18.23;;;11.13;;
3369;SDS011;42042;51.948;7.628;2022-12-18T10:56:41;20.33;;;12.05;;
3369;SDS011;42042;51.948;7.628;2022-12-18T10:59:09;17.95;;;11.85;;
3369;SDS011;42042;51.948;7.628;2022-12-18T11:01:47;20.25;;;10.93;;
3369;SDS011;42042;51.948;7.628;2022-12-18T11:04:16;15.85;;;10.93;;
3369;SDS011;42042;51.948;7.628;2022-12-18T11:06:53;14.88;;;11.80;;
3369;SDS011;42042;51.948;7.628;2022-12-18T11:09:22;14.15;;;9.90;;
3369;SDS011;42042;51.948;7.628;2022-12-18T11:11:49;16.05;;;11.13;;
3369;SDS011;42042;51.948;7.628;2022-12-18T11:14:18;13.88;;;10.38;;
3369;SDS011;42042;51.948;7.628;2022-12-18T11:16:48;18.80;;;12.20;;
3369;SDS011;42042;51.948;7.628;2022-12-18T11:19:20;15.75;;;11.35;;
3369;SDS011;42042;51.948;7.628;2022-12-18T11:21:49;13.68;;;9.95;;
3369;SDS011;42042;51.948;7.628;2022-12-18T11:24:21;16.25;;;10.48;;
3369;SDS011;42042;51.948;7.628;2022-12-18T11:26:49;44.42;;;26.30;;
3369;SDS011;42042;51.948;7.628;2022-12-18T11:29:18;19.17;;;11.80;;
3369;SDS011;42042;51.948;7.628;2022-12-18T11:31:45;16.00;;;10.40;;
3369;SDS011;42042;51.948;7.628;2022-12-18T11:34:13;17.67;;;12.65;;
3369;SDS011;42042;51.948;7.628;2022-12-18T11:36:42;15.35;;;11.20;;
3369;SDS011;42042;51.948;7.628;2022-12-18T11:39:12;18.10;;;11.85;;
3369;SDS011;42042;51.948;7.628;2022-12-18T11:41:43;20.10;;;13.13;;
3369;SDS011;42042;51.948;7.628;2022-12-18T11:44:31;15.13;;;11.95;;
3369;SDS011;42042;51.948;7.628;2022-12-18T11:47:03;15.75;;;11.80;;
3369;SDS011;42042;51.948;7.628;2022-12-18T11:49:36;44.38;;;35.88;;
3369;SDS011;42042;51.948;7.628;2022-12-18T11:52:04;74.95;;;60.78;;
3369;SDS011;42042;51.948;7.628;2022-12-18T11:54:36;62.03;;;49.80;;
3369;SDS011;42042;51.948;7.628;2022-12-18T11:57:06;52.28;;;38.90;;
3369;SDS011;42042;51.948;7.628;2022-12-18T11:59:37;31.42;;;22.25;;
3369;SDS011;42042;51.948;7.628;2022-12-18T12:02:15;29.35;;;19.15;;
3369;SDS011;42042;51.948;7.628;2022-12-18T12:04:54;21.15;;;16.05;;
3369;SDS011;42042;51.948;7.628;2022-12-18T12:07:27;18.58;;;12.02;;
3369;SDS011;42042;51.948;7.628;2022-12-18T12:09:57;16.05;;;11.85;;
3369;SDS011;42042;51.948;7.628;2022-12-18T12:12:30;19.60;;;11.25;;
3369;SDS011;42042;51.948;7.628;2022-12-18T12:15:12;14.20;;;9.90;;
3369;SDS011;42042;51.948;7.628;2022-12-18T12:17:41;14.48;;;11.30;;
3369;SDS011;42042;51.948;7.628;2022-12-18T12:20:13;16.60;;;11.00;;
3369;SDS011;42042;51.948;7.628;2022-12-18T12:22:43;15.23;;;11.20;;
3369;SDS011;42042;51.948;7.628;2022-12-18T12:25:21;12.63;;;10.05;;
3369;SDS011;42042;51.948;7.628;2022-12-18T12:27:54;18.98;;;11.07;;
3369;SDS011;42042;51.948;7.628;2022-12-18T12:30:27;33.47;;;21.45;;
3369;SDS011;42042;51.948;7.628;2022-12-18T12:33:06;30.48;;;18.27;;
3369;SDS011;42042;51.948;7.628;2022-12-18T12:35:38;17.30;;;11.20;;
3369;SDS011;42042;51.948;7.628;2022-12-18T12:38:10;19.60;;;11.80;;
3369;SDS011;42042;51.948;7.628;2022-12-18T12:40:39;14.23;;;11.55;;
3369;SDS011;42042;51.948;7.628;2022-12-18T12:43:12;15.60;;;9.93;;
3369;SDS011;42042;51.948;7.628;2022-12-18T12:45:44;15.32;;;11.60;;
3369;SDS011;42042;51.948;7.628;2022-12-18T12:48:18;18.98;;;11.85;;
3369;SDS011;42042;51.948;7.628;2022-12-18T12:50:47;18.70;;;12.48;;
3369;SDS011;42042;51.948;7.628;2022-12-18T12:53:18;14.50;;;10.90;;
3369;SDS011;42042;51.948;7.628;2022-12-18T12:55:48;15.10;;;10.60;;
3369;SDS011;42042;51.948;7.628;2022-12-18T12:58:18;14.85;;;11.15;;
3369;SDS011;42042;51.948;7.628;2022-12-18T13:00:49;16.17;;;10.15;;
3369;SDS011;42042;51.948;7.628;2022-12-18T13:03:24;18.63;;;10.45;;
3369;SDS011;42042;51.948;7.628;2022-12-18T13:05:56;14.57;;;10.95;;
3369;SDS011;42042;51.948;7.628;2022-12-18T13:08:25;19.25;;;11.20;;
3369;SDS011;42042;51.948;7.628;2022-12-18T13:10:53;13.75;;;10.02;;
3369;SDS011;42042;51.948;7.628;2022-12-18T13:13:50;12.68;;;9.13;;
3369;SDS011;42042;51.948;7.628;2022-12-18T13:16:18;16.17;;;10.40;;
3369;SDS011;42042;51.948;7.628;2022-12-18T13:18:49;13.10;;;9.60;;
3369;SDS011;42042;51.948;7.628;2022-12-18T13:21:19;16.40;;;9.93;;
3369;SDS011;42042;51.948;7.628;2022-12-18T13:23:48;17.08;;;10.60;;
3369;SDS011;42042;51.948;7.628;2022-12-18T13:26:28;14.73;;;10.50;;
3369;SDS011;42042;51.948;7.628;2022-12-18T13:28:58;17.13;;;9.48;;
3369;SDS011;42042;51.948;7.628;2022-12-18T13:34:14;16.23;;;10.15;;
3369;SDS011;42042;51.948;7.628;2022-12-18T13:36:42;14.18;;;10.23;;
3369;SDS011;42042;51.948;7.628;2022-12-18T13:39:23;17.58;;;11.05;;
3369;SDS011;42042;51.948;7.628;2022-12-18T13:41:51;14.95;;;10.10;;
3369;SDS011;42042;51.948;7.628;2022-12-18T13:44:28;13.88;;;9.95;;
3369;SDS011;42042;51.948;7.628;2022-12-18T13:46:56;13.57;;;8.95;;
3369;SDS011;42042;51.948;7.628;2022-12-18T13:49:25;13.80;;;10.23;;
3369;SDS011;42042;51.948;7.628;2022-12-18T13:51:54;12.43;;;9.23;;
3369;SDS011;42042;51.948;7.628;2022-12-18T13:54:23;13.13;;;10.05;;
3369;SDS011;42042;51.948;7.628;2022-12-18T13:56:52;14.23;;;10.25;;
3369;SDS011;42042;51.948;7.628;2022-12-18T13:59:20;12.70;;;9.13;;
3369;SDS011;42042;51.948;7.628;2022-12-18T14:01:50;13.13;;;9.73;;
3369;SDS011;42042;51.948;7.628;2022-12-18T14:04:20;15.25;;;9.35;;
3369;SDS011;42042;51.948;7.628;2022-12-18T14:06:47;15.05;;;10.10;;
3369;SDS011;42042;51.948;7.628;2022-12-18T14:09:23;15.90;;;9.75;;
3369;SDS011;42042;51.948;7.628;2022-12-18T14:11:51;20.02;;;10.40;;
3369;SDS011;42042;51.948;7.628;2022-12-18T14:14:40;12.38;;;8.90;;
3369;SDS011;42042;51.948;7.628;2022-12-18T14:17:09;14.43;;;9.50;;
3369;SDS011;42042;51.948;7.628;2022-12-18T14:19:40;13.77;;;10.65;;
3369;SDS011;42042;51.948;7.628;2022-12-18T14:22:10;14.38;;;10.57;;
3369;SDS011;42042;51.948;7.628;2022-12-18T14:24:39;14.52;;;10.30;;
3369;SDS011;42042;51.948;7.628;2022-12-18T14:27:12;13.90;;;10.05;;
3369;SDS011;42042;51.948;7.628;2022-12-18T14:29:40;11.27;;;9.15;;
3369;SDS011;42042;51.948;7.628;2022-12-18T14:32:12;11.55;;;8.98;;
3369;SDS011;42042;51.948;7.628;2022-12-18T14:34:42;17.73;;;10.77;;
3369;SDS011;42042;51.948;7.628;2022-12-18T14:37:09;13.32;;;10.02;;
3369;SDS011;42042;51.948;7.628;2022-12-18T14:39:37;12.70;;;9.07;;
3369;SDS011;42042;51.948;7.628;2022-12-18T14:42:05;18.60;;;9.50;;
3369;SDS011;42042;51.948;7.628;2022-12-18T14:44:32;14.50;;;9.55;;
3369;SDS011;42042;51.948;7.628;2022-12-18T14:46:59;14.18;;;9.45;;
3369;SDS011;42042;51.948;7.628;2022-12-18T14:49:29;12.85;;;9.20;;
3369;SDS011;42042;51.948;7.628;2022-12-18T14:52:00;14.65;;;10.30;;
3369;SDS011;42042;51.948;7.628;2022-12-18T14:54:28;13.15;;;8.95;;
3369;SDS011;42042;51.948;7.628;2022-12-18T14:56:57;16.65;;;9.77;;